createdAt,value
2019-03-23T00:02:15.272Z,81.74
2019-03-23T00:07:21.832Z,82.01
2019-03-23T00:12:30.258Z,82.18
2019-03-23T00:17:38.489Z,82.18
2019-03-23T00:22:46.619Z,82.25
2019-03-23T00:27:56.254Z,82.08
2019-03-23T00:33:04.707Z,82.08
2019-03-23T00:38:13.712Z,82.14
2019-03-23T00:43:21.569Z,82.14
2019-03-23T00:48:30.051Z,82.30
2019-03-23T00:55:35.108Z,82.52
2019-03-23T01:00:43.106Z,82.03
2019-03-23T01:05:51.327Z,81.98
2019-03-23T01:10:59.227Z,81.76
2019-03-23T01:16:08.059Z,81.81
2019-03-23T01:21:15.913Z,81.97
2019-03-23T01:26:24.052Z,81.97
2019-03-23T01:31:31.910Z,82.04
2019-03-23T01:36:39.646Z,82.05
2019-03-23T01:41:48.015Z,81.67
2019-03-23T01:46:55.744Z,81.67
2019-03-23T01:52:03.653Z,81.67
2019-03-23T01:57:12.938Z,81.90
2019-03-23T02:02:20.755Z,81.90
2019-03-23T02:07:28.682Z,82.41
2019-03-23T02:12:36.625Z,82.82
2019-03-23T02:17:44.418Z,83.01
2019-03-23T02:24:21.683Z,83.27
2019-03-23T02:29:29.613Z,83.26
2019-03-23T02:34:37.582Z,83.32
2019-03-23T02:39:46.589Z,83.42
2019-03-23T02:44:54.554Z,83.48
2019-03-23T02:50:02.573Z,83.48
2019-03-23T02:58:31.384Z,83.88
2019-03-23T03:03:39.259Z,83.58
2019-03-23T03:08:48.262Z,83.55
2019-03-23T03:13:56.584Z,83.51
2019-03-23T03:19:05.586Z,83.47
2019-03-23T03:24:13.590Z,83.35
2019-03-23T03:29:20.266Z,83.35
2019-03-23T03:34:29.848Z,83.30
2019-03-23T03:39:38.268Z,83.34
2019-03-23T03:44:44.849Z,83.24
2019-03-23T03:49:52.929Z,83.20
2019-03-23T03:58:21.072Z,83.66
2019-03-23T04:08:39.605Z,82.81
2019-03-23T04:13:49.626Z,83.06
2019-03-23T04:18:58.580Z,82.97
2019-03-23T04:24:08.057Z,82.97
2019-03-23T04:29:15.906Z,82.90
2019-03-23T04:34:24.246Z,82.85
2019-03-23T04:39:33.365Z,82.79
2019-03-23T04:44:41.381Z,82.78
2019-03-23T04:49:49.116Z,82.76
2019-03-23T04:54:58.265Z,82.76
2019-03-23T05:00:08.707Z,82.71
2019-03-23T05:05:16.607Z,82.70
2019-03-23T05:10:24.584Z,82.66
2019-03-23T05:15:34.051Z,82.66
2019-03-23T05:20:44.088Z,82.66
2019-03-23T05:25:52.336Z,82.60
2019-03-23T05:31:00.250Z,82.55
2019-03-23T05:36:09.644Z,82.65
2019-03-23T05:41:16.475Z,82.66
2019-03-23T05:46:24.094Z,82.66
2019-03-23T05:51:32.032Z,82.55
2019-03-23T05:56:40.585Z,82.62
2019-03-23T06:01:48.433Z,82.62
2019-03-23T06:06:57.220Z,82.62
2019-03-23T06:12:07.235Z,82.57
2019-03-23T06:17:13.839Z,82.59
2019-03-23T06:24:05.434Z,82.96
2019-03-23T06:29:14.255Z,82.50
2019-03-23T06:34:22.471Z,82.52
2019-03-23T06:39:30.639Z,82.05
2019-03-23T06:44:38.641Z,81.87
2019-03-23T06:49:47.583Z,81.85
2019-03-23T06:54:56.587Z,81.72
2019-03-23T07:00:04.835Z,81.72
2019-03-23T07:05:13.100Z,81.91
2019-03-23T07:13:40.848Z,82.37
2019-03-23T07:18:49.462Z,81.74
2019-03-23T07:23:55.848Z,81.41
2019-03-23T07:29:05.220Z,81.19
2019-03-23T07:34:13.031Z,81.18
2019-03-23T07:39:27.276Z,81.11
2019-03-23T07:44:30.687Z,81.03
2019-03-23T07:49:39.048Z,81.03
2019-03-23T08:01:34.086Z,81.45
2019-03-23T08:06:42.010Z,81.04
2019-03-23T08:11:50.041Z,81.04
2019-03-23T08:16:56.950Z,80.98
2019-03-23T08:22:05.750Z,80.87
2019-03-23T08:27:14.038Z,80.50
2019-03-23T08:32:23.447Z,80.26
2019-03-23T08:37:31.569Z,79.86
2019-03-23T08:42:39.433Z,78.95
2019-03-23T08:47:47.464Z,78.89
2019-03-23T08:52:55.432Z,78.89
2019-03-23T08:58:03.257Z,77.94
2019-03-23T09:03:10.488Z,77.00
2019-03-23T09:08:21.527Z,76.07
2019-03-23T09:13:40.212Z,73.98
2019-03-23T09:18:40.315Z,73.98
2019-03-23T09:23:48.472Z,70.73
2019-03-23T09:28:56.399Z,70.73
2019-03-23T09:34:04.253Z,69.26
2019-03-23T09:39:13.246Z,67.22
2019-03-23T09:44:21.580Z,65.32
2019-03-23T09:49:31.567Z,62.30
2019-03-23T09:54:40.216Z,61.10
2019-03-23T09:59:48.058Z,61.10
2019-03-23T10:04:57.049Z,59.43
2019-03-23T10:10:05.588Z,57.53
2019-03-23T10:15:15.466Z,56.02
2019-03-23T10:20:23.240Z,56.02
2019-03-23T10:25:30.260Z,54.69
2019-03-23T10:30:39.048Z,53.38
2019-03-23T10:35:47.641Z,51.80
2019-03-23T10:40:56.253Z,50.12
2019-03-23T10:46:03.810Z,50.12
2019-03-23T10:51:12.049Z,49.03
2019-03-23T10:56:20.240Z,48.79
2019-03-23T11:01:26.834Z,48.91
2019-03-23T11:06:34.763Z,48.25
2019-03-23T11:11:42.635Z,47.34
2019-03-23T11:16:51.331Z,44.46
2019-03-23T11:21:58.228Z,44.46
2019-03-23T11:27:06.105Z,45.04
2019-03-23T11:36:19.106Z,44.17
2019-03-23T11:41:27.003Z,43.32
2019-03-23T11:46:38.038Z,43.96
2019-03-23T11:51:46.581Z,43.19
2019-03-23T11:56:54.612Z,42.71
2019-03-23T12:02:02.045Z,42.79
2019-03-23T12:07:11.076Z,42.79
2019-03-23T12:12:18.805Z,42.51
2019-03-23T12:17:27.021Z,42.65
2019-03-23T12:22:35.078Z,43.22
2019-03-23T12:27:42.255Z,42.27
2019-03-23T12:32:50.624Z,42.09
2019-03-23T12:37:58.679Z,41.07
2019-03-23T12:43:06.908Z,40.98
2019-03-23T12:48:15.102Z,40.98
2019-03-23T12:53:23.370Z,41.92
2019-03-23T12:58:31.682Z,43.37
2019-03-23T13:03:41.278Z,43.35
2019-03-23T13:08:49.576Z,43.81
2019-03-23T13:13:59.696Z,45.24
2019-03-23T13:19:07.873Z,45.43
2019-03-23T13:24:15.702Z,45.43
2019-03-23T13:29:24.579Z,44.94
2019-03-23T13:34:33.411Z,45.00
2019-03-23T13:39:41.439Z,45.00
2019-03-23T13:44:49.448Z,45.04
2019-03-23T13:49:57.575Z,44.33
2019-03-23T13:55:08.764Z,44.29
2019-03-23T14:00:17.236Z,44.29
2019-03-23T14:05:26.028Z,44.38
2019-03-23T14:10:35.569Z,44.30
2019-03-23T14:15:43.871Z,43.65
2019-03-23T14:20:54.243Z,43.65
2019-03-23T14:26:02.478Z,44.52
2019-03-23T14:31:10.600Z,45.28
2019-03-23T14:36:19.042Z,45.66
2019-03-23T14:41:26.496Z,45.66
2019-03-23T14:46:34.330Z,46.85
2019-03-23T14:51:41.600Z,47.44
2019-03-23T14:56:50.064Z,48.27
2019-03-23T15:01:57.916Z,47.83
2019-03-23T15:07:06.043Z,47.83
2019-03-23T15:12:15.228Z,48.10
2019-03-23T15:17:23.105Z,47.94
2019-03-23T15:22:30.901Z,47.29
2019-03-23T15:27:38.700Z,47.76
2019-03-23T15:32:46.901Z,48.94
2019-03-23T15:37:54.715Z,48.94
2019-03-23T15:43:01.589Z,48.60
2019-03-23T15:48:09.894Z,48.60
2019-03-23T15:53:18.446Z,49.02
2019-03-23T15:58:26.682Z,48.81
2019-03-23T16:03:35.109Z,49.52
2019-03-23T16:08:43.623Z,49.82
2019-03-23T16:13:51.608Z,51.03
2019-03-23T16:18:59.568Z,50.94
2019-03-23T16:24:07.409Z,50.94
2019-03-23T16:29:15.045Z,51.13
2019-03-23T16:34:24.247Z,51.40
2019-03-23T16:39:33.068Z,51.43
2019-03-23T16:44:41.277Z,51.62
2019-03-23T16:49:49.260Z,51.97
2019-03-23T16:54:57.868Z,52.46
2019-03-23T17:00:07.562Z,52.88
2019-03-23T17:07:48.240Z,53.69
2019-03-23T17:12:56.246Z,54.03
2019-03-23T17:18:03.613Z,54.40
2019-03-23T17:23:11.647Z,54.93
2019-03-23T17:28:20.599Z,55.03
2019-03-23T17:33:29.504Z,55.03
2019-03-23T17:38:38.397Z,55.25
2019-03-23T17:43:46.116Z,55.25
2019-03-23T17:48:54.699Z,55.35
2019-03-23T17:54:02.313Z,55.51
2019-03-23T17:59:10.409Z,55.51
2019-03-23T18:04:18.605Z,55.50
2019-03-23T18:09:27.031Z,55.61
2019-03-23T18:14:34.842Z,55.57
2019-03-23T18:19:43.572Z,55.91
2019-03-23T18:24:51.684Z,56.13
2019-03-23T18:30:00.353Z,56.13
2019-03-23T18:35:09.432Z,56.32
2019-03-23T18:40:17.928Z,56.45
2019-03-23T18:45:26.624Z,56.56
2019-03-23T18:50:34.664Z,56.81
2019-03-23T18:55:44.380Z,56.73
2019-03-23T19:00:52.374Z,56.73
2019-03-23T19:06:00.255Z,56.78
2019-03-23T19:11:08.110Z,56.80
2019-03-23T19:16:16.598Z,56.89
2019-03-23T19:21:24.579Z,57.82
2019-03-23T19:26:33.998Z,57.82
2019-03-23T19:31:42.039Z,58.04
2019-03-23T19:36:50.553Z,58.60
2019-03-23T19:41:58.592Z,59.01
2019-03-23T19:47:06.578Z,58.99
2019-03-23T19:52:14.403Z,58.83
2019-03-23T19:57:21.819Z,58.83
2019-03-23T20:02:30.171Z,58.90
2019-03-23T20:07:38.416Z,59.18
2019-03-23T20:12:47.330Z,59.64
2019-03-23T20:17:55.019Z,60.07
2019-03-23T20:23:03.104Z,60.44
2019-03-23T20:28:10.902Z,61.02
2019-03-23T20:33:20.746Z,61.38
2019-03-23T20:38:28.935Z,61.39
2019-03-23T20:43:35.489Z,61.14
2019-03-23T20:48:46.263Z,60.70
2019-03-23T20:53:54.627Z,60.63
2019-03-23T20:59:03.615Z,59.71
2019-03-23T21:04:11.862Z,59.46
2019-03-23T21:09:20.924Z,59.46
2019-03-23T21:14:29.086Z,58.93
2019-03-23T21:19:37.676Z,57.80
2019-03-23T21:24:46.455Z,57.38
2019-03-23T21:29:55.240Z,57.38
2019-03-23T21:35:03.243Z,57.57
2019-03-23T21:40:12.473Z,57.88
2019-03-23T21:45:21.061Z,57.95
2019-03-23T21:50:30.257Z,57.90
2019-03-23T21:55:38.489Z,58.06
2019-03-23T22:00:46.545Z,58.36
2019-03-23T22:05:55.626Z,58.68
2019-03-23T22:11:03.909Z,59.37
2019-03-23T22:16:11.706Z,59.37
2019-03-23T22:21:20.583Z,59.54
2019-03-23T22:26:29.255Z,60.54
2019-03-23T22:32:04.872Z,60.53
2019-03-23T22:37:12.681Z,61.02
2019-03-23T22:42:21.274Z,61.73
2019-03-23T22:47:29.416Z,61.73
2019-03-23T22:52:36.002Z,62.29
2019-03-23T22:57:45.422Z,62.97
2019-03-23T23:02:53.134Z,63.53
2019-03-23T23:08:02.474Z,64.27
2019-03-23T23:13:10.280Z,64.66
2019-03-23T23:18:18.392Z,65.29
2019-03-23T23:23:26.434Z,65.29
2019-03-23T23:28:35.127Z,65.32
2019-03-23T23:33:43.280Z,65.36
2019-03-23T23:38:52.566Z,65.55
2019-03-23T23:44:01.255Z,65.76
2019-03-23T23:49:10.075Z,65.76
2019-03-23T23:54:17.280Z,65.57
2019-03-23T23:59:25.075Z,64.97
